sensor_id;sensor_type;location;lat;lon;timestamp;pressure;altitude;pressure_sealevel;temperature;humidity
13695;BME280;6919;52.344;14.518;2024-01-07T00:02:08;100897.66;;;-0.82;100.00
13695;BME280;6919;52.344;14.518;2024-01-07T00:04:37;100906.94;;;-0.75;100.00
13695;BME280;6919;52.344;14.518;2024-01-07T00:07:05;100897.94;;;-0.88;100.00
13695;BME280;6919;52.344;14.518;2024-01-07T00:09:35;100901.44;;;-0.87;100.00
13695;BME280;6919;52.344;14.518;2024-01-07T00:12:04;100907.56;;;-0.87;100.00
13695;BME280;6919;52.344;14.518;2024-01-07T00:14:33;100905.00;;;-0.88;100.00
13695;BME280;6919;52.344;14.518;2024-01-07T00:17:02;100905.25;;;-0.76;100.00
13695;BME280;6919;52.344;14.518;2024-01-07T00:19:30;100910.34;;;-0.90;100.00
13695;BME280;6919;52.344;14.518;2024-01-07T00:21:59;100913.72;;;-0.88;100.00
13695;BME280;6919;52.344;14.518;2024-01-07T00:24:28;100916.94;;;-0.81;100.00
13695;BME280;6919;52.344;14.518;2024-01-07T00:26:58;100897.72;;;-0.83;100.00
13695;BME280;6919;52.344;14.518;2024-01-07T00:29:26;100905.00;;;-0.88;100.00
13695;BME280;6919;52.344;14.518;2024-01-07T00:31:55;100917.91;;;-0.84;100.00
13695;BME280;6919;52.344;14.518;2024-01-07T00:34:23;100914.75;;;-0.90;100.00
13695;BME280;6919;52.344;14.518;2024-01-07T00:36:52;100919.94;;;-0.89;100.00
13695;BME280;6919;52.344;14.518;2024-01-07T00:39:21;100916.03;;;-0.99;100.00
13695;BME280;6919;52.344;14.518;2024-01-07T00:41:50;100922.56;;;-0.89;100.00
13695;BME280;6919;52.344;14.518;2024-01-07T00:44:20;100918.94;;;-0.86;100.00
13695;BME280;6919;52.344;14.518;2024-01-07T00:46:49;100925.13;;;-0.87;100.00
13695;BME280;6919;52.344;14.518;2024-01-07T00:49:17;100926.28;;;-0.93;100.00
13695;BME280;6919;52.344;14.518;2024-01-07T00:51:46;100925.28;;;-0.90;100.00
13695;BME280;6919;52.344;14.518;2024-01-07T00:54:14;100926.09;;;-1.07;100.00
13695;BME280;6919;52.344;14.518;2024-01-07T00:56:44;100930.28;;;-1.03;100.00
13695;BME280;6919;52.344;14.518;2024-01-07T00:59:13;100931.34;;;-1.07;100.00
13695;BME280;6919;52.344;14.518;2024-01-07T01:01:43;100945.19;;;-1.03;100.00
13695;BME280;6919;52.344;14.518;2024-01-07T01:04:12;100942.88;;;-1.09;100.00
13695;BME280;6919;52.344;14.518;2024-01-07T01:06:40;100942.88;;;-1.09;100.00
13695;BME280;6919;52.344;14.518;2024-01-07T01:09:09;100951.72;;;-0.93;100.00
13695;BME280;6919;52.344;14.518;2024-01-07T01:11:38;100941.59;;;-1.01;100.00
13695;BME280;6919;52.344;14.518;2024-01-07T01:14:06;100953.53;;;-0.94;100.00
13695;BME280;6919;52.344;14.518;2024-01-07T01:16:35;100956.00;;;-0.91;100.00
13695;BME280;6919;52.344;14.518;2024-01-07T01:19:05;100954.38;;;-0.93;100.00
13695;BME280;6919;52.344;14.518;2024-01-07T01:21:34;100959.16;;;-1.01;100.00
13695;BME280;6919;52.344;14.518;2024-01-07T01:24:02;100962.47;;;-0.98;100.00
13695;BME280;6919;52.344;14.518;2024-01-07T01:26:31;100961.56;;;-1.15;100.00
13695;BME280;6919;52.344;14.518;2024-01-07T01:29:00;100971.81;;;-1.09;100.00
13695;BME280;6919;52.344;14.518;2024-01-07T01:31:28;100973.44;;;-1.07;100.00
13695;BME280;6919;52.344;14.518;2024-01-07T01:33:57;100981.06;;;-1.01;100.00
13695;BME280;6919;52.344;14.518;2024-01-07T01:36:27;100978.25;;;-0.98;100.00
13695;BME280;6919;52.344;14.518;2024-01-07T01:38:56;100976.00;;;-1.24;100.00
13695;BME280;6919;52.344;14.518;2024-01-07T01:41:24;100983.28;;;-1.29;100.00
13695;BME280;6919;52.344;14.518;2024-01-07T01:43:57;100978.28;;;-1.35;100.00
13695;BME280;6919;52.344;14.518;2024-01-07T01:46:26;100988.81;;;-1.35;100.00
13695;BME280;6919;52.344;14.518;2024-01-07T01:48:57;100987.09;;;-1.36;100.00
13695;BME280;6919;52.344;14.518;2024-01-07T01:51:28;100981.53;;;-1.30;100.00
13695;BME280;6919;52.344;14.518;2024-01-07T01:53:59;100990.13;;;-1.45;100.00
13695;BME280;6919;52.344;14.518;2024-01-07T01:56:30;101002.66;;;-1.50;100.00
13695;BME280;6919;52.344;14.518;2024-01-07T01:59:00;101004.56;;;-1.53;100.00
13695;BME280;6919;52.344;14.518;2024-01-07T02:01:29;101001.22;;;-1.57;100.00
13695;BME280;6919;52.344;14.518;2024-01-07T02:03:59;101016.19;;;-1.59;100.00
13695;BME280;6919;52.344;14.518;2024-01-07T02:06:29;101011.44;;;-1.51;100.00
13695;BME280;6919;52.344;14.518;2024-01-07T02:08:59;101014.38;;;-1.57;100.00
13695;BME280;6919;52.344;14.518;2024-01-07T02:11:27;101014.50;;;-1.60;100.00
13695;BME280;6919;52.344;14.518;2024-01-07T02:13:56;101010.25;;;-1.62;100.00
13695;BME280;6919;52.344;14.518;2024-01-07T02:16:25;101013.06;;;-1.67;100.00
13695;BME280;6919;52.344;14.518;2024-01-07T02:18:54;101014.75;;;-1.66;100.00
13695;BME280;6919;52.344;14.518;2024-01-07T02:21:23;101020.56;;;-1.78;100.00
13695;BME280;6919;52.344;14.518;2024-01-07T02:23:54;101019.63;;;-1.77;100.00
13695;BME280;6919;52.344;14.518;2024-01-07T02:26:25;101018.13;;;-1.82;100.00
13695;BME280;6919;52.344;14.518;2024-01-07T02:28:56;101020.88;;;-1.85;100.00
13695;BME280;6919;52.344;14.518;2024-01-07T02:31:24;101013.88;;;-2.05;100.00
13695;BME280;6919;52.344;14.518;2024-01-07T02:33:53;101040.22;;;-1.86;100.00
13695;BME280;6919;52.344;14.518;2024-01-07T02:36:22;101031.06;;;-1.98;100.00
13695;BME280;6919;52.344;14.518;2024-01-07T02:38:50;101037.97;;;-1.95;100.00
13695;BME280;6919;52.344;14.518;2024-01-07T02:41:19;101033.75;;;-1.99;100.00
13695;BME280;6919;52.344;14.518;2024-01-07T02:43:54;101042.44;;;-1.97;100.00
13695;BME280;6919;52.344;14.518;2024-01-07T02:46:24;101035.75;;;-2.04;100.00
13695;BME280;6919;52.344;14.518;2024-01-07T02:48:53;101045.97;;;-1.98;100.00
13695;BME280;6919;52.344;14.518;2024-01-07T02:51:22;101045.78;;;-2.14;100.00
13695;BME280;6919;52.344;14.518;2024-01-07T02:53:51;101049.88;;;-2.07;100.00
13695;BME280;6919;52.344;14.518;2024-01-07T02:56:19;101051.03;;;-2.14;100.00
13695;BME280;6919;52.344;14.518;2024-01-07T02:58:50;101052.91;;;-2.17;100.00
13695;BME280;6919;52.344;14.518;2024-01-07T03:01:22;101066.31;;;-2.23;100.00
13695;BME280;6919;52.344;14.518;2024-01-07T03:03:51;101068.16;;;-2.25;100.00
13695;BME280;6919;52.344;14.518;2024-01-07T03:06:19;101057.88;;;-2.31;100.00
13695;BME280;6919;52.344;14.518;2024-01-07T03:08:48;101068.28;;;-2.28;100.00
13695;BME280;6919;52.344;14.518;2024-01-07T03:11:17;101070.16;;;-2.32;100.00
13695;BME280;6919;52.344;14.518;2024-01-07T03:13:45;101067.16;;;-2.44;100.00
13695;BME280;6919;52.344;14.518;2024-01-07T03:16:21;101064.25;;;-2.37;100.00
13695;BME280;6919;52.344;14.518;2024-01-07T03:18:50;101062.19;;;-2.50;100.00
13695;BME280;6919;52.344;14.518;2024-01-07T03:21:19;101066.56;;;-2.51;100.00
13695;BME280;6919;52.344;14.518;2024-01-07T03:23:49;101061.69;;;-2.60;100.00
13695;BME280;6919;52.344;14.518;2024-01-07T03:26:18;101061.59;;;-2.58;100.00
13695;BME280;6919;52.344;14.518;2024-01-07T03:28:47;101060.44;;;-2.51;100.00
13695;BME280;6919;52.344;14.518;2024-01-07T03:31:18;101070.47;;;-2.61;100.00
13695;BME280;6919;52.344;14.518;2024-01-07T03:33:48;101062.00;;;-2.67;100.00
13695;BME280;6919;52.344;14.518;2024-01-07T03:36:17;101066.44;;;-2.69;100.00
13695;BME280;6919;52.344;14.518;2024-01-07T03:38:45;101061.63;;;-2.80;100.00
13695;BME280;6919;52.344;14.518;2024-01-07T03:41:16;101066.75;;;-2.77;100.00
13695;BME280;6919;52.344;14.518;2024-01-07T03:43:47;101064.13;;;-2.77;100.00
13695;BME280;6919;52.344;14.518;2024-01-07T03:46:16;101063.16;;;-2.74;100.00
13695;BME280;6919;52.344;14.518;2024-01-07T03:48:46;101069.50;;;-2.80;100.00
13695;BME280;6919;52.344;14.518;2024-01-07T03:51:15;101071.41;;;-2.85;100.00
13695;BME280;6919;52.344;14.518;2024-01-07T03:53:44;101078.13;;;-2.78;100.00
13695;BME280;6919;52.344;14.518;2024-01-07T03:56:12;101072.94;;;-2.79;100.00
13695;BME280;6919;52.344;14.518;2024-01-07T03:58:41;101075.88;;;-2.87;100.00
13695;BME280;6919;52.344;14.518;2024-01-07T04:01:09;101087.91;;;-2.81;100.00
13695;BME280;6919;52.344;14.518;2024-01-07T04:03:38;101094.97;;;-2.83;100.00
13695;BME280;6919;52.344;14.518;2024-01-07T04:06:08;101098.53;;;-2.84;100.00
13695;BME280;6919;52.344;14.518;2024-01-07T04:08:37;101101.19;;;-2.86;100.00
13695;BME280;6919;52.344;14.518;2024-01-07T04:11:05;101100.53;;;-2.91;100.00
13695;BME280;6919;52.344;14.518;2024-01-07T04:13:34;101104.34;;;-2.99;100.00
13695;BME280;6919;52.344;14.518;2024-01-07T04:16:03;101108.66;;;-2.98;100.00
13695;BME280;6919;52.344;14.518;2024-01-07T04:18:32;101122.75;;;-3.01;100.00
13695;BME280;6919;52.344;14.518;2024-01-07T04:21:00;101117.47;;;-2.99;100.00
13695;BME280;6919;52.344;14.518;2024-01-07T04:23:31;101120.91;;;-2.99;100.00
13695;BME280;6919;52.344;14.518;2024-01-07T04:25:59;101125.66;;;-3.09;100.00
13695;BME280;6919;52.344;14.518;2024-01-07T04:28:28;101124.69;;;-3.06;100.00
13695;BME280;6919;52.344;14.518;2024-01-07T04:30:57;101124.94;;;-3.12;100.00
13695;BME280;6919;52.344;14.518;2024-01-07T04:33:25;101130.97;;;-3.10;100.00
13695;BME280;6919;52.344;14.518;2024-01-07T04:35:54;101133.47;;;-3.07;100.00
13695;BME280;6919;52.344;14.518;2024-01-07T04:38:25;101136.84;;;-3.03;100.00
13695;BME280;6919;52.344;14.518;2024-01-07T04:40:55;101130.00;;;-3.08;100.00
13695;BME280;6919;52.344;14.518;2024-01-07T04:43:24;101141.63;;;-3.15;100.00
13695;BME280;6919;52.344;14.518;2024-01-07T04:45:53;101148.53;;;-3.12;100.00
13695;BME280;6919;52.344;14.518;2024-01-07T04:48:21;101154.63;;;-3.12;100.00
13695;BME280;6919;52.344;14.518;2024-01-07T04:50:50;101155.53;;;-3.13;100.00
13695;BME280;6919;52.344;14.518;2024-01-07T04:53:18;101160.09;;;-3.18;100.00
13695;BME280;6919;52.344;14.518;2024-01-07T04:55:47;101167.19;;;-3.21;100.00
13695;BME280;6919;52.344;14.518;2024-01-07T04:58:17;101163.69;;;-3.20;100.00
13695;BME280;6919;52.344;14.518;2024-01-07T05:00:46;101163.78;;;-3.23;100.00
13695;BME280;6919;52.344;14.518;2024-01-07T05:03:15;101162.88;;;-3.22;100.00
13695;BME280;6919;52.344;14.518;2024-01-07T05:05:43;101177.78;;;-3.24;100.00
13695;BME280;6919;52.344;14.518;2024-01-07T05:08:12;101176.09;;;-3.25;100.00
13695;BME280;6919;52.344;14.518;2024-01-07T05:10:40;101173.41;;;-3.24;100.00
13695;BME280;6919;52.344;14.518;2024-01-07T05:13:09;101182.16;;;-3.23;100.00
13695;BME280;6919;52.344;14.518;2024-01-07T05:15:39;101178.88;;;-3.30;100.00
13695;BME280;6919;52.344;14.518;2024-01-07T05:18:08;101182.09;;;-3.22;100.00
13695;BME280;6919;52.344;14.518;2024-01-07T05:20:38;101180.09;;;-3.15;100.00
13695;BME280;6919;52.344;14.518;2024-01-07T05:23:06;101182.19;;;-3.25;100.00
13695;BME280;6919;52.344;14.518;2024-01-07T05:25:35;101189.16;;;-3.24;100.00
13695;BME280;6919;52.344;14.518;2024-01-07T05:28:04;101196.03;;;-3.21;100.00
13695;BME280;6919;52.344;14.518;2024-01-07T05:30:33;101197.84;;;-3.22;100.00
13695;BME280;6919;52.344;14.518;2024-01-07T05:33:03;101196.19;;;-3.26;100.00
13695;BME280;6919;52.344;14.518;2024-01-07T05:35:32;101194.50;;;-3.27;100.00
13695;BME280;6919;52.344;14.518;2024-01-07T05:38:01;101193.81;;;-3.32;100.00
13695;BME280;6919;52.344;14.518;2024-01-07T05:40:30;101193.41;;;-3.21;100.00
13695;BME280;6919;52.344;14.518;2024-01-07T05:42:58;101189.09;;;-3.22;100.00
13695;BME280;6919;52.344;14.518;2024-01-07T05:45:27;101192.34;;;-3.16;100.00
13695;BME280;6919;52.344;14.518;2024-01-07T05:47:55;101195.88;;;-3.17;100.00
13695;BME280;6919;52.344;14.518;2024-01-07T05:50:26;101196.84;;;-3.19;100.00
13695;BME280;6919;52.344;14.518;2024-01-07T05:52:54;101199.25;;;-3.13;100.00
13695;BME280;6919;52.344;14.518;2024-01-07T05:55:23;101198.47;;;-3.15;100.00
13695;BME280;6919;52.344;14.518;2024-01-07T05:57:52;101201.09;;;-3.15;100.00
13695;BME280;6919;52.344;14.518;2024-01-07T06:00:20;101210.88;;;-3.20;100.00
13695;BME280;6919;52.344;14.518;2024-01-07T06:02:50;101212.69;;;-3.22;100.00
13695;BME280;6919;52.344;14.518;2024-01-07T06:05:19;101219.34;;;-3.12;100.00
13695;BME280;6919;52.344;14.518;2024-01-07T06:07:49;101211.69;;;-3.18;100.00
13695;BME280;6919;52.344;14.518;2024-01-07T06:10:18;101216.97;;;-3.20;100.00
13695;BME280;6919;52.344;14.518;2024-01-07T06:12:46;101214.56;;;-3.26;100.00
13695;BME280;6919;52.344;14.518;2024-01-07T06:15:15;101219.31;;;-3.37;100.00
13695;BME280;6919;52.344;14.518;2024-01-07T06:17:44;101223.28;;;-3.25;100.00
13695;BME280;6919;52.344;14.518;2024-01-07T06:20:14;101225.84;;;-3.24;100.00
13695;BME280;6919;52.344;14.518;2024-01-07T06:22:43;101229.59;;;-3.31;100.00
13695;BME280;6919;52.344;14.518;2024-01-07T06:25:13;101238.09;;;-3.24;100.00
13695;BME280;6919;52.344;14.518;2024-01-07T06:27:41;101230.22;;;-3.24;100.00
13695;BME280;6919;52.344;14.518;2024-01-07T06:30:11;101231.09;;;-3.24;100.00
13695;BME280;6919;52.344;14.518;2024-01-07T06:32:40;101241.09;;;-3.35;100.00
13695;BME280;6919;52.344;14.518;2024-01-07T06:35:08;101236.00;;;-3.39;100.00
13695;BME280;6919;52.344;14.518;2024-01-07T06:37:37;101242.00;;;-3.36;100.00
13695;BME280;6919;52.344;14.518;2024-01-07T06:40:07;101228.41;;;-3.47;100.00
13695;BME280;6919;52.344;14.518;2024-01-07T06:42:37;101245.47;;;-3.35;100.00
13695;BME280;6919;52.344;14.518;2024-01-07T06:45:06;101236.00;;;-3.39;100.00
13695;BME280;6919;52.344;14.518;2024-01-07T06:47:35;101237.66;;;-3.37;100.00
13695;BME280;6919;52.344;14.518;2024-01-07T06:50:04;101236.66;;;-3.33;100.00
13695;BME280;6919;52.344;14.518;2024-01-07T06:52:33;101246.34;;;-3.35;100.00
13695;BME280;6919;52.344;14.518;2024-01-07T06:55:02;101248.19;;;-3.38;100.00
13695;BME280;6919;52.344;14.518;2024-01-07T06:57:31;101247.44;;;-3.42;100.00
13695;BME280;6919;52.344;14.518;2024-01-07T07:00:01;101255.97;;;-3.35;100.00
13695;BME280;6919;52.344;14.518;2024-01-07T07:02:30;101264.75;;;-3.36;100.00
13695;BME280;6919;52.344;14.518;2024-01-07T07:04:58;101249.22;;;-3.42;100.00
13695;BME280;6919;52.344;14.518;2024-01-07T07:07:27;101266.59;;;-3.40;100.00
13695;BME280;6919;52.344;14.518;2024-01-07T07:09:55;101259.69;;;-3.42;100.00
13695;BME280;6919;52.344;14.518;2024-01-07T07:12:24;101262.25;;;-3.41;100.00
13695;BME280;6919;52.344;14.518;2024-01-07T07:14:53;101263.13;;;-3.40;100.00
13695;BME280;6919;52.344;14.518;2024-01-07T07:17:23;101270.13;;;-3.41;100.00
13695;BME280;6919;52.344;14.518;2024-01-07T07:19:51;101265.56;;;-3.34;100.00
13695;BME280;6919;52.344;14.518;2024-01-07T07:22:20;101277.81;;;-3.35;100.00
13695;BME280;6919;52.344;14.518;2024-01-07T07:24:49;101268.28;;;-3.37;100.00
13695;BME280;6919;52.344;14.518;2024-01-07T07:27:18;101275.97;;;-3.33;100.00
13695;BME280;6919;52.344;14.518;2024-01-07T07:29:46;101274.94;;;-3.27;100.00
13695;BME280;6919;52.344;14.518;2024-01-07T07:32:15;101272.41;;;-3.30;100.00
13695;BME280;6919;52.344;14.518;2024-01-07T07:34:45;101280.88;;;-3.22;100.00
13695;BME280;6919;52.344;14.518;2024-01-07T07:37:14;101279.47;;;-3.32;100.00
13695;BME280;6919;52.344;14.518;2024-01-07T07:39:47;101290.03;;;-3.35;100.00
13695;BME280;6919;52.344;14.518;2024-01-07T07:42:16;101292.28;;;-3.23;100.00
13695;BME280;6919;52.344;14.518;2024-01-07T07:44:45;101293.38;;;-3.30;100.00
13695;BME280;6919;52.344;14.518;2024-01-07T07:47:15;101291.50;;;-3.27;100.00
13695;BME280;6919;52.344;14.518;2024-01-07T07:49:45;101294.91;;;-3.23;100.00
13695;BME280;6919;52.344;14.518;2024-01-07T07:52:13;101301.16;;;-3.27;100.00
13695;BME280;6919;52.344;14.518;2024-01-07T07:54:41;101306.22;;;-3.23;100.00
13695;BME280;6919;52.344;14.518;2024-01-07T07:57:10;101303.41;;;-3.17;100.00
13695;BME280;6919;52.344;14.518;2024-01-07T07:59:38;101312.94;;;-3.14;100.00
13695;BME280;6919;52.344;14.518;2024-01-07T08:02:07;101320.59;;;-3.08;100.00
13695;BME280;6919;52.344;14.518;2024-01-07T08:04:36;101324.63;;;-2.98;100.00
13695;BME280;6919;52.344;14.518;2024-01-07T08:07:06;101319.91;;;-2.88;100.00
13695;BME280;6919;52.344;14.518;2024-01-07T08:09:35;101334.56;;;-2.81;100.00
13695;BME280;6919;52.344;14.518;2024-01-07T08:12:05;101324.91;;;-2.81;100.00
13695;BME280;6919;52.344;14.518;2024-01-07T08:14:33;101319.34;;;-2.72;100.00
13695;BME280;6919;52.344;14.518;2024-01-07T08:17:03;101320.63;;;-2.59;100.00
13695;BME280;6919;52.344;14.518;2024-01-07T08:19:32;101324.09;;;-2.58;100.00
13695;BME280;6919;52.344;14.518;2024-01-07T08:22:01;101333.84;;;-2.62;100.00
13695;BME280;6919;52.344;14.518;2024-01-07T08:24:31;101324.81;;;-2.53;100.00
13695;BME280;6919;52.344;14.518;2024-01-07T08:26:59;101339.63;;;-2.52;100.00
13695;BME280;6919;52.344;14.518;2024-01-07T08:29:28;101336.91;;;-2.49;100.00
13695;BME280;6919;52.344;14.518;2024-01-07T08:31:57;101337.38;;;-2.38;100.00
13695;BME280;6919;52.344;14.518;2024-01-07T08:34:26;101330.41;;;-2.39;100.00
13695;BME280;6919;52.344;14.518;2024-01-07T08:36:55;101342.47;;;-2.34;100.00
13695;BME280;6919;52.344;14.518;2024-01-07T08:39:23;101338.97;;;-2.34;100.00
13695;BME280;6919;52.344;14.518;2024-01-07T08:41:54;101345.88;;;-2.32;100.00
13695;BME280;6919;52.344;14.518;2024-01-07T08:44:23;101344.88;;;-2.28;100.00
13695;BME280;6919;52.344;14.518;2024-01-07T08:46:52;101341.88;;;-2.42;100.00
13695;BME280;6919;52.344;14.518;2024-01-07T08:49:20;101328.47;;;-2.34;100.00
13695;BME280;6919;52.344;14.518;2024-01-07T08:51:49;101325.84;;;-2.34;100.00
13695;BME280;6919;52.344;14.518;2024-01-07T08:54:18;101330.81;;;-2.27;100.00
13695;BME280;6919;52.344;14.518;2024-01-07T08:56:46;101335.31;;;-2.30;100.00
13695;BME280;6919;52.344;14.518;2024-01-07T08:59:17;101336.19;;;-2.30;100.00
13695;BME280;6919;52.344;14.518;2024-01-07T09:01:45;101342.75;;;-2.18;100.00
13695;BME280;6919;52.344;14.518;2024-01-07T09:04:14;101344.97;;;-2.08;100.00
13695;BME280;6919;52.344;14.518;2024-01-07T09:06:44;101347.84;;;-2.14;100.00
13695;BME280;6919;52.344;14.518;2024-01-07T09:09:12;101350.53;;;-1.92;100.00
13695;BME280;6919;52.344;14.518;2024-01-07T09:11:41;101338.00;;;-1.86;100.00
13695;BME280;6919;52.344;14.518;2024-01-07T09:14:10;101342.47;;;-1.88;100.00
13695;BME280;6919;52.344;14.518;2024-01-07T09:16:40;101354.41;;;-1.79;100.00
13695;BME280;6919;52.344;14.518;2024-01-07T09:19:09;101353.53;;;-1.57;100.00
13695;BME280;6919;52.344;14.518;2024-01-07T09:21:41;101366.47;;;-1.74;100.00
13695;BME280;6919;52.344;14.518;2024-01-07T09:24:11;101352.84;;;-1.62;100.00
13695;BME280;6919;52.344;14.518;2024-01-07T09:26:40;101355.00;;;-1.50;100.00
13695;BME280;6919;52.344;14.518;2024-01-07T09:29:08;101353.41;;;-1.54;100.00
13695;BME280;6919;52.344;14.518;2024-01-07T09:31:39;101348.88;;;-1.50;100.00
13695;BME280;6919;52.344;14.518;2024-01-07T09:34:08;101347.66;;;-1.42;100.00
13695;BME280;6919;52.344;14.518;2024-01-07T09:36:36;101352.81;;;-1.39;100.00
13695;BME280;6919;52.344;14.518;2024-01-07T09:39:05;101353.50;;;-1.35;100.00
13695;BME280;6919;52.344;14.518;2024-01-07T09:41:34;101356.41;;;-1.41;100.00
13695;BME280;6919;52.344;14.518;2024-01-07T09:44:03;101355.59;;;-1.43;100.00
13695;BME280;6919;52.344;14.518;2024-01-07T09:46:32;101347.28;;;-1.33;100.00
13695;BME280;6919;52.344;14.518;2024-01-07T09:49:04;101352.75;;;-1.37;100.00
13695;BME280;6919;52.344;14.518;2024-01-07T09:51:35;101365.91;;;-1.37;100.00
13695;BME280;6919;52.344;14.518;2024-01-07T09:54:09;101364.72;;;-1.52;100.00
13695;BME280;6919;52.344;14.518;2024-01-07T09:56:46;101350.16;;;-1.60;100.00
13695;BME280;6919;52.344;14.518;2024-01-07T09:59:18;101354.75;;;-1.44;100.00
13695;BME280;6919;52.344;14.518;2024-01-07T10:01:47;101366.94;;;-1.41;100.00
13695;BME280;6919;52.344;14.518;2024-01-07T10:04:22;101355.72;;;-1.25;100.00
13695;BME280;6919;52.344;14.518;2024-01-07T10:06:51;101347.84;;;-1.25;100.00
13695;BME280;6919;52.344;14.518;2024-01-07T10:09:23;101341.66;;;-1.02;100.00
13695;BME280;6919;52.344;14.518;2024-01-07T10:11:53;101352.47;;;-1.10;100.00
13695;BME280;6919;52.344;14.518;2024-01-07T10:14:22;101352.66;;;-1.14;100.00
13695;BME280;6919;52.344;14.518;2024-01-07T10:16:52;101357.50;;;-1.04;100.00
13695;BME280;6919;52.344;14.518;2024-01-07T10:19:23;101356.19;;;-0.94;100.00
13695;BME280;6919;52.344;14.518;2024-01-07T10:22:03;101356.09;;;-1.12;100.00
13695;BME280;6919;52.344;14.518;2024-01-07T10:24:36;101356.19;;;-0.94;100.00
13695;BME280;6919;52.344;14.518;2024-01-07T10:27:07;101363.16;;;-0.93;100.00
13695;BME280;6919;52.344;14.518;2024-01-07T10:29:37;101362.41;;;-0.75;100.00
13695;BME280;6919;52.344;14.518;2024-01-07T10:32:06;101358.31;;;-0.82;100.00
13695;BME280;6919;52.344;14.518;2024-01-07T10:34:36;101362.13;;;-0.89;100.00
13695;BME280;6919;52.344;14.518;2024-01-07T10:37:05;101355.94;;;-0.68;100.00
13695;BME280;6919;52.344;14.518;2024-01-07T10:39:34;101356.19;;;-0.74;100.00
13695;BME280;6919;52.344;14.518;2024-01-07T10:42:04;101343.03;;;-0.74;100.00
13695;BME280;6919;52.344;14.518;2024-01-07T10:44:34;101341.09;;;-0.69;100.00
13695;BME280;6919;52.344;14.518;2024-01-07T10:47:07;101334.56;;;-0.80;100.00
13695;BME280;6919;52.344;14.518;2024-01-07T10:49:40;101337.09;;;-0.59;100.00
13695;BME280;6919;52.344;14.518;2024-01-07T10:52:12;101336.91;;;-0.54;100.00
13695;BME280;6919;52.344;14.518;2024-01-07T10:54:43;101342.44;;;-0.40;100.00
13695;BME280;6919;52.344;14.518;2024-01-07T10:57:17;101346.88;;;-0.41;100.00
13695;BME280;6919;52.344;14.518;2024-01-07T10:59:50;101346.25;;;-0.47;100.00
13695;BME280;6919;52.344;14.518;2024-01-07T11:02:22;101350.44;;;-0.62;100.00
13695;BME280;6919;52.344;14.518;2024-01-07T11:05:00;101352.38;;;-0.67;100.00
13695;BME280;6919;52.344;14.518;2024-01-07T11:07:35;101344.16;;;-0.59;100.00
13695;BME280;6919;52.344;14.518;2024-01-07T11:10:08;101343.03;;;-0.54;100.00
13695;BME280;6919;52.344;14.518;2024-01-07T11:12:39;101329.19;;;-0.59;100.00
13695;BME280;6919;52.344;14.518;2024-01-07T11:15:08;101339.47;;;-0.53;100.00
13695;BME280;6919;52.344;14.518;2024-01-07T11:17:41;101331.25;;;-0.65;100.00
13695;BME280;6919;52.344;14.518;2024-01-07T11:20:19;101339.47;;;-0.53;100.00
13695;BME280;6919;52.344;14.518;2024-01-07T11:22:49;101331.38;;;-0.68;100.00
13695;BME280;6919;52.344;14.518;2024-01-07T11:25:30;101330.13;;;-0.60;100.00
13695;BME280;6919;52.344;14.518;2024-01-07T11:28:01;101327.75;;;-0.46;100.00
13695;BME280;6919;52.344;14.518;2024-01-07T11:30:30;101334.09;;;-0.50;100.00
13695;BME280;6919;52.344;14.518;2024-01-07T11:33:06;101337.22;;;-0.22;100.00
13695;BME280;6919;52.344;14.518;2024-01-07T11:35:55;101339.16;;;-0.45;100.00
13695;BME280;6919;52.344;14.518;2024-01-07T11:38:25;101336.53;;;-0.27;100.00
13695;BME280;6919;52.344;14.518;2024-01-07T11:40:56;101332.97;;;-0.44;100.00
13695;BME280;6919;52.344;14.518;2024-01-07T11:43:26;101338.03;;;-0.40;100.00
13695;BME280;6919;52.344;14.518;2024-01-07T11:45:56;101342.56;;;-0.43;100.00
13695;BME280;6919;52.344;14.518;2024-01-07T11:48:25;101336.66;;;-0.10;100.00
13695;BME280;6919;52.344;14.518;2024-01-07T11:50:55;101336.25;;;-0.01;100.00
13695;BME280;6919;52.344;14.518;2024-01-07T11:53:24;101343.41;;;-0.04;100.00
13695;BME280;6919;52.344;14.518;2024-01-07T11:55:53;101343.06;;;-0.15;100.00
13695;BME280;6919;52.344;14.518;2024-01-07T11:58:21;101347.25;;;-0.11;100.00
13695;BME280;6919;52.344;14.518;2024-01-07T12:00:50;101330.44;;;-0.27;100.00
13695;BME280;6919;52.344;14.518;2024-01-07T12:03:19;101344.44;;;-0.45;100.00
13695;BME280;6919;52.344;14.518;2024-01-07T12:05:48;101337.53;;;-0.29;100.00
13695;BME280;6919;52.344;14.518;2024-01-07T12:08:18;101339.97;;;-0.25;100.00
13695;BME280;6919;52.344;14.518;2024-01-07T12:10:48;101333.94;;;-0.08;100.00
13695;BME280;6919;52.344;14.518;2024-01-07T12:13:18;101330.00;;;-0.18;100.00
13695;BME280;6919;52.344;14.518;2024-01-07T12:15:48;101328.50;;;-0.24;100.00
13695;BME280;6919;52.344;14.518;2024-01-07T12:18:16;101330.88;;;-0.18;100.00
13695;BME280;6919;52.344;14.518;2024-01-07T12:20:55;101318.44;;;-0.14;100.00
13695;BME280;6919;52.344;14.518;2024-01-07T12:23:26;101329.44;;;-0.25;100.00
13695;BME280;6919;52.344;14.518;2024-01-07T12:25:55;101329.03;;;-0.16;100.00
13695;BME280;6919;52.344;14.518;2024-01-07T12:28:35;101327.75;;;-0.26;100.00
13695;BME280;6919;52.344;14.518;2024-01-07T12:31:04;101329.75;;;-0.12;100.00
13695;BME280;6919;52.344;14.518;2024-01-07T12:33:34;101319.63;;;-0.21;100.00
13695;BME280;6919;52.344;14.518;2024-01-07T12:36:03;101328.44;;;-0.22;100.00
13695;BME280;6919;52.344;14.518;2024-01-07T12:38:33;101329.56;;;-0.28;100.00
13695;BME280;6919;52.344;14.518;2024-01-07T12:41:04;101326.94;;;-0.28;100.00
13695;BME280;6919;52.344;14.518;2024-01-07T12:43:33;101318.66;;;-0.39;100.00
13695;BME280;6919;52.344;14.518;2024-01-07T12:46:02;101323.81;;;-0.36;100.00
13695;BME280;6919;52.344;14.518;2024-01-07T12:48:33;101323.03;;;-0.58;100.00
13695;BME280;6919;52.344;14.518;2024-01-07T12:51:02;101324.66;;;-0.35;100.00
13695;BME280;6919;52.344;14.518;2024-01-07T12:53:32;101324.72;;;-0.37;100.00